Time;durP1;ratioP1;P1;durP2;ratioP2;P2;SDS_P1;SDS_P2;PMS_P1;PMS_P2;Temp;Humidity;BMP_temperature;BMP_pressure;BME280_temperature;BME280_humidity;BME280_pressure;Samples;Min_cycle;Max_cycle;Signal;HPM_P1;HPM_P2
2021/05/21 00:00:30;;;;;;;;;;;;;;;11.27;80.28;96948.50;1714414;83;20200;-80
2021/05/21 00:02:58;;;;;;;;;;;;;;;11.27;80.05;96951.14;1715785;83;20232;-76
2021/05/21 00:05:25;;;;;;;;;;;;;;;11.28;79.92;96954.95;1713014;83;20167;-76
2021/05/21 00:07:51;;;;;;;;;;;;;;;11.29;79.64;96951.82;1712210;83;20177;-77
2021/05/21 00:10:17;;;;;;;;;;;;;;;11.29;79.86;96953.14;1713161;83;20219;-76
2021/05/21 00:12:43;;;;;;;;;;;;;;;11.31;79.90;96956.49;1715818;83;20160;-77
2021/05/21 00:15:10;;;;;;;;;;;;;;;11.29;79.55;96952.67;1714471;83;20141;-76
2021/05/21 00:17:36;;;;;;;;;;;;;;;11.28;79.57;96956.74;1716388;83;20183;-78
2021/05/21 00:20:04;;;;;;;;;;;;;;;11.24;79.24;96958.34;1716439;84;20164;-77
2021/05/21 00:22:31;;;;;;;;;;;;;;;11.23;79.75;96957.98;1713204;83;20176;-77
2021/05/21 00:24:57;;;;;;;;;;;;;;;11.20;79.43;96962.69;1724488;82;20164;-77
2021/05/21 00:27:23;;;;;;;;;;;;;;;11.17;79.68;96957.67;1728471;83;20168;-78
2021/05/21 00:29:49;;;;;;;;;;;;;;;11.15;79.60;96956.48;1730285;83;20136;-77
2021/05/21 00:32:15;;;;;;;;;;;;;;;11.15;79.90;96956.48;1729402;83;20163;-75
2021/05/21 00:34:41;;;;;;;;;;;;;;;11.16;79.68;96958.16;1743192;81;20538;-78
2021/05/21 00:37:07;;;;;;;;;;;;;;;11.13;79.43;96958.41;1732374;81;20155;-76
2021/05/21 00:39:33;;;;;;;;;;;;;;;11.13;79.31;96962.37;1729914;82;20183;-78
2021/05/21 00:42:00;;;;;;;;;;;;;;;11.12;79.52;96963.33;1730037;82;20155;-77
2021/05/21 00:44:27;;;;;;;;;;;;;;;11.14;79.54;96962.73;1730144;82;20188;-77
2021/05/21 00:46:53;;;;;;;;;;;;;;;11.15;79.52;96965.72;1759047;81;20190;-78
2021/05/21 00:49:19;;;;;;;;;;;;;;;11.17;79.54;96966.44;1733146;82;20231;-77
2021/05/21 00:51:46;;;;;;;;;;;;;;;11.17;79.27;96968.22;1729980;82;20167;-78
2021/05/21 00:54:14;;;;;;;;;;;;;;;11.15;79.62;96969.68;1730319;83;20168;-77
2021/05/21 00:56:40;;;;;;;;;;;;;;;11.13;80.25;96974.24;1732008;82;20228;-80
2021/05/21 00:59:06;;;;;;;;;;;;;;;11.14;80.79;96982.98;1731903;82;20183;-77
2021/05/21 01:01:33;;;;;;;;;;;;;;;11.13;80.01;96981.33;1731754;83;20152;-78
2021/05/21 01:03:59;;;;;;;;;;;;;;;11.13;79.86;96983.47;1729957;82;20163;-77
2021/05/21 01:06:26;;;;;;;;;;;;;;;11.15;80.11;96980.23;1731216;83;20160;-77
2021/05/21 01:08:54;;;;;;;;;;;;;;;11.18;79.95;96985.22;1730150;82;20156;-78
2021/05/21 01:11:20;;;;;;;;;;;;;;;11.21;80.05;96978.38;1729806;83;20480;-77
2021/05/21 01:13:48;;;;;;;;;;;;;;;11.21;79.86;96984.98;1730134;80;20175;-76
2021/05/21 01:16:14;;;;;;;;;;;;;;;11.22;81.23;96983.19;1732276;83;20192;-77
2021/05/21 01:18:41;;;;;;;;;;;;;;;11.17;80.39;96986.22;1729599;82;20167;-77
2021/05/21 01:21:07;;;;;;;;;;;;;;;11.18;80.28;96993.64;1730114;82;20132;-77
2021/05/21 01:23:34;;;;;;;;;;;;;;;11.20;80.24;96990.39;1730218;83;20547;-77
2021/05/21 01:26:00;;;;;;;;;;;;;;;11.23;80.07;96989.65;1733262;82;20214;-78
2021/05/21 01:28:26;;;;;;;;;;;;;;;11.24;79.79;96990.00;1733666;82;20161;-77
2021/05/21 01:30:52;;;;;;;;;;;;;;;11.22;80.20;96989.79;1731554;83;20151;-80
2021/05/21 01:33:18;;;;;;;;;;;;;;;11.18;81.49;96989.68;1732042;83;20144;-77
2021/05/21 01:35:45;;;;;;;;;;;;;;;11.15;81.62;96994.73;1729668;82;20155;-75
2021/05/21 01:38:13;;;;;;;;;;;;;;;11.16;80.97;96996.42;1730855;82;20175;-76
2021/05/21 01:40:42;;;;;;;;;;;;;;;11.16;80.54;96988.50;1733209;81;20172;-77
2021/05/21 01:43:09;;;;;;;;;;;;;;;11.14;80.36;96991.74;1732959;83;20184;-76
2021/05/21 01:45:37;;;;;;;;;;;;;;;11.13;80.06;96992.70;1732581;83;20175;-77
2021/05/21 01:48:04;;;;;;;;;;;;;;;11.14;80.82;96993.53;1732933;83;20160;-77
2021/05/21 01:50:32;;;;;;;;;;;;;;;11.14;81.23;96998.34;1730670;83;20136;-77
2021/05/21 01:52:58;;;;;;;;;;;;;;;11.14;81.04;97002.30;1732842;83;20159;-77
2021/05/21 01:55:24;;;;;;;;;;;;;;;11.15;80.83;96997.37;1733687;83;20179;-77
2021/05/21 01:57:50;;;;;;;;;;;;;;;11.09;80.14;97002.68;1733280;83;20473;-78
2021/05/21 02:00:17;;;;;;;;;;;;;;;11.11;80.51;97001.23;1733098;83;20491;-77
2021/05/21 02:02:43;;;;;;;;;;;;;;;11.12;80.68;97004.22;1731766;82;20231;-78
2021/05/21 02:05:10;;;;;;;;;;;;;;;11.13;80.30;97001.12;1729410;83;20563;-78
2021/05/21 02:07:36;;;;;;;;;;;;;;;11.12;80.12;97010.81;1730466;82;20199;-77
2021/05/21 02:10:10;;;;;;;;;;;;;;;11.11;80.19;97010.95;1730299;83;20172;-76
2021/05/21 02:12:36;;;;;;;;;;;;;;;11.13;80.25;97011.17;1730334;82;20163;-76
2021/05/21 02:15:07;;;;;;;;;;;;;;;11.12;80.00;97013.95;1733406;82;20170;-78
2021/05/21 02:17:35;;;;;;;;;;;;;;;11.14;80.15;97013.31;1732835;80;20564;-78
2021/05/21 02:20:03;;;;;;;;;;;;;;;11.11;79.82;97017.05;1731763;83;20228;-77
2021/05/21 02:22:30;;;;;;;;;;;;;;;11.18;80.07;97022.66;1730980;83;20156;-77
2021/05/21 02:24:58;;;;;;;;;;;;;;;11.22;80.12;97020.95;1708188;82;20174;-77
2021/05/21 02:27:25;;;;;;;;;;;;;;;11.23;79.82;97023.95;1730691;82;20191;-78
2021/05/21 02:29:51;;;;;;;;;;;;;;;11.28;79.81;97026.66;1731594;83;20163;-77
2021/05/21 02:32:19;;;;;;;;;;;;;;;11.26;79.49;97026.80;1732733;83;20151;-77
2021/05/21 02:34:45;;;;;;;;;;;;;;;11.24;79.42;97030.05;1730216;83;20187;-77
2021/05/21 02:37:12;;;;;;;;;;;;;;;11.26;79.70;97028.13;1732645;80;20172;-77
2021/05/21 02:39:38;;;;;;;;;;;;;;;11.31;79.91;97030.38;1730185;82;20159;-75
2021/05/21 02:42:05;;;;;;;;;;;;;;;11.29;80.11;97031.83;1729822;82;20519;-78
2021/05/21 02:44:31;;;;;;;;;;;;;;;11.24;79.37;97035.32;1730324;82;20160;-77
2021/05/21 02:46:57;;;;;;;;;;;;;;;11.28;79.24;97041.17;1732793;83;20183;-77
2021/05/21 02:49:23;;;;;;;;;;;;;;;11.32;79.35;97046.56;1731551;83;20176;-76
2021/05/21 02:51:51;;;;;;;;;;;;;;;11.37;79.51;97044.36;1731339;83;20231;-77
2021/05/21 02:54:17;;;;;;;;;;;;;;;11.38;78.95;97049.53;1731712;83;20171;-77
2021/05/21 02:56:44;;;;;;;;;;;;;;;11.40;79.13;97050.70;1732157;83;20174;-77
2021/05/21 02:59:10;;;;;;;;;;;;;;;11.33;79.86;97047.74;1731489;83;20180;-76
2021/05/21 03:01:37;;;;;;;;;;;;;;;11.29;79.32;97046.81;1732712;83;20504;-78
2021/05/21 03:04:03;;;;;;;;;;;;;;;11.31;79.13;97060.72;1704504;83;20188;-75
2021/05/21 03:06:30;;;;;;;;;;;;;;;11.29;79.00;97052.09;1730998;82;20163;-77
2021/05/21 03:08:56;;;;;;;;;;;;;;;11.32;78.89;97058.44;1733028;83;20152;-77
2021/05/21 03:11:22;;;;;;;;;;;;;;;11.32;78.92;97061.08;1733064;83;20520;-78
2021/05/21 03:13:50;;;;;;;;;;;;;;;11.33;78.74;97066.21;1732207;83;20496;-77
2021/05/21 03:16:16;;;;;;;;;;;;;;;11.32;79.15;97063.22;1731923;81;20501;-76
2021/05/21 03:18:42;;;;;;;;;;;;;;;11.27;79.06;97065.91;1732677;83;20497;-77
2021/05/21 03:21:11;;;;;;;;;;;;;;;11.27;79.35;97067.23;1731300;83;20167;-77
2021/05/21 03:23:37;;;;;;;;;;;;;;;11.27;79.61;97065.91;1733618;83;20191;-77
2021/05/21 03:26:03;;;;;;;;;;;;;;;11.28;78.94;97065.78;1721245;82;20136;-77
2021/05/21 03:28:33;;;;;;;;;;;;;;;11.36;79.32;97063.83;1714343;83;20540;-76
2021/05/21 03:30:57;;;;;;;;;;;;;;;11.42;79.32;97071.22;1669760;85;20178;-76
2021/05/21 03:33:24;;;;;;;;;;;;;;;11.48;78.88;97072.50;1667291;85;20201;-77
2021/05/21 03:35:50;;;;;;;;;;;;;;;11.52;79.02;97073.44;1667591;86;20180;-77
2021/05/21 03:38:16;;;;;;;;;;;;;;;11.59;79.06;97079.04;1688987;84;20167;-77
2021/05/21 03:40:42;;;;;;;;;;;;;;;11.66;78.94;97081.97;1714988;83;20232;-75
2021/05/21 03:43:09;;;;;;;;;;;;;;;11.74;78.21;97087.43;1716740;83;20190;-77
2021/05/21 03:45:36;;;;;;;;;;;;;;;11.78;78.12;97087.53;1730363;83;20175;-77
2021/05/21 03:48:02;;;;;;;;;;;;;;;11.84;78.24;97091.46;1717231;83;20169;-78
2021/05/21 03:50:28;;;;;;;;;;;;;;;11.95;78.75;97090.06;1716415;83;20200;-77
2021/05/21 03:52:55;;;;;;;;;;;;;;;12.09;78.45;97087.58;1714364;84;20148;-77
2021/05/21 03:55:21;;;;;;;;;;;;;;;12.22;78.16;97086.02;1716466;84;20499;-77
2021/05/21 03:57:48;;;;;;;;;;;;;;;12.37;78.46;97091.78;1712573;84;20137;-77
2021/05/21 04:00:16;;;;;;;;;;;;;;;12.42;77.16;97095.34;1723412;82;20186;-77
2021/05/21 04:02:42;;;;;;;;;;;;;;;12.52;77.39;97100.64;1725613;82;20492;-77
2021/05/21 04:05:09;;;;;;;;;;;;;;;12.56;76.29;97102.05;1719404;82;20565;-78
2021/05/21 04:07:35;;;;;;;;;;;;;;;12.67;76.31;97104.56;1743022;82;20142;-77
2021/05/21 04:10:01;;;;;;;;;;;;;;;12.71;76.18;97106.47;1742808;82;20162;-76
2021/05/21 04:12:28;;;;;;;;;;;;;;;12.75;75.58;97112.67;1728864;82;20164;-76
2021/05/21 04:14:56;;;;;;;;;;;;;;;12.81;75.87;97116.09;1713922;83;20160;-77
2021/05/21 04:17:23;;;;;;;;;;;;;;;12.88;75.81;97113.73;1664540;86;20176;-77
2021/05/21 04:19:50;;;;;;;;;;;;;;;13.01;75.21;97117.91;1658776;87;20149;-77
2021/05/21 04:22:16;;;;;;;;;;;;;;;13.09;75.45;97123.34;1687885;85;20158;-77
2021/05/21 04:24:43;;;;;;;;;;;;;;;13.12;74.98;97123.07;1653602;85;20173;-77
2021/05/21 04:27:09;;;;;;;;;;;;;;;13.16;74.88;97120.98;1664102;84;20153;-83
2021/05/21 04:29:36;;;;;;;;;;;;;;;13.25;75.65;97125.44;1733985;81;20168;-77
2021/05/21 04:32:03;;;;;;;;;;;;;;;13.24;74.17;97127.73;1729055;82;20187;-79
2021/05/21 04:34:29;;;;;;;;;;;;;;;13.28;75.05;97125.17;1729330;82;20163;-78
2021/05/21 04:36:58;;;;;;;;;;;;;;;13.34;73.85;97131.22;1729605;83;20165;-77
2021/05/21 04:39:25;;;;;;;;;;;;;;;13.44;74.53;97128.62;1728894;82;20186;-77
2021/05/21 04:41:52;;;;;;;;;;;;;;;13.97;74.25;97133.05;1728808;83;20167;-77
2021/05/21 04:44:18;;;;;;;;;;;;;;;14.77;72.19;97132.59;1728741;83;20156;-77
2021/05/21 04:46:44;;;;;;;;;;;;;;;15.66;72.00;97135.40;1728837;83;20158;-77
2021/05/21 04:49:11;;;;;;;;;;;;;;;16.58;68.15;97136.29;1730029;83;20155;-76
2021/05/21 04:51:37;;;;;;;;;;;;;;;17.20;63.09;97134.66;1730196;83;20519;-78
2021/05/21 04:54:04;;;;;;;;;;;;;;;17.64;64.60;97137.02;1729625;83;20765;-77
2021/05/21 04:56:31;;;;;;;;;;;;;;;18.20;60.98;97134.15;1728846;83;20488;-77
2021/05/21 04:58:57;;;;;;;;;;;;;;;18.85;58.97;97113.02;1730012;83;20152;-77
2021/05/21 05:01:24;;;;;;;;;;;;;;;19.61;63.54;97128.42;1730064;83;20168;-77
2021/05/21 05:03:50;;;;;;;;;;;;;;;20.24;56.80;97132.69;1730013;83;20164;-78
2021/05/21 05:06:17;;;;;;;;;;;;;;;20.94;58.67;97133.23;1729972;83;20143;-77
2021/05/21 05:08:43;;;;;;;;;;;;;;;21.62;55.06;97132.89;1728729;82;20508;-78
2021/05/21 05:11:09;;;;;;;;;;;;;;;22.17;49.17;97130.97;1728791;82;20140;-77
2021/05/21 05:13:35;;;;;;;;;;;;;;;22.69;48.76;97136.84;1728928;83;20167;-77
2021/05/21 05:16:02;;;;;;;;;;;;;;;23.14;45.87;97138.27;1728585;83;20226;-76
2021/05/21 05:18:28;;;;;;;;;;;;;;;23.55;53.18;97131.45;1729815;83;20196;-78
2021/05/21 05:20:54;;;;;;;;;;;;;;;24.01;45.52;97139.23;1677199;84;20167;-77
2021/05/21 05:23:20;;;;;;;;;;;;;;;24.28;47.50;97137.84;1677260;84;20135;-78
2021/05/21 05:25:47;;;;;;;;;;;;;;;24.72;74.63;97141.41;1685478;84;20530;-78
2021/05/21 05:28:13;;;;;;;;;;;;;;;24.55;45.32;97132.92;1698091;84;20287;-78
2021/05/21 05:30:39;;;;;;;;;;;;;;;24.85;56.05;97133.79;1697361;85;20154;-79
2021/05/21 05:33:05;;;;;;;;;;;;;;;25.05;40.85;97137.73;1697344;85;20174;-77
2021/05/21 05:35:31;;;;;;;;;;;;;;;25.37;40.45;97133.73;1697233;85;20217;-77
2021/05/21 05:37:58;;;;;;;;;;;;;;;25.80;48.79;97133.03;1697338;85;20506;-78
2021/05/21 05:40:25;;;;;;;;;;;;;;;26.16;37.89;97134.20;1695824;85;20153;-78
2021/05/21 05:42:51;;;;;;;;;;;;;;;26.57;35.39;97130.55;1697320;85;20194;-77
2021/05/21 05:45:17;;;;;;;;;;;;;;;26.91;35.30;97130.19;1697223;85;20179;-77
2021/05/21 05:47:43;;;;;;;;;;;;;;;27.09;34.19;97135.56;1697219;85;20499;-78
2021/05/21 05:50:10;;;;;;;;;;;;;;;27.28;33.63;97127.41;1696230;84;20210;-77
2021/05/21 05:52:36;;;;;;;;;;;;;;;27.43;34.94;97140.01;1693854;84;20209;-77
2021/05/21 05:55:03;;;;;;;;;;;;;;;27.70;36.61;97134.19;1693834;84;20170;-79
2021/05/21 05:57:29;;;;;;;;;;;;;;;27.73;38.41;97136.98;1694049;85;20181;-77
2021/05/21 05:59:55;;;;;;;;;;;;;;;27.76;33.83;97131.62;1693740;84;20146;-76
2021/05/21 06:02:23;;;;;;;;;;;;;;;27.97;33.33;97132.94;1696246;84;20518;-77
2021/05/21 06:04:49;;;;;;;;;;;;;;;28.12;31.83;97134.67;1695579;84;20170;-76
2021/05/21 06:07:15;;;;;;;;;;;;;;;28.33;31.72;97141.41;1695611;84;20165;-77
2021/05/21 06:09:42;;;;;;;;;;;;;;;28.64;29.97;97136.64;1693877;84;20166;-75
2021/05/21 06:12:10;;;;;;;;;;;;;;;28.92;32.78;97141.04;1687561;82;20155;-74
2021/05/21 06:14:36;;;;;;;;;;;;;;;28.98;33.19;97146.33;1715101;82;20488;-79
2021/05/21 06:17:02;;;;;;;;;;;;;;;28.99;31.56;97141.72;1696827;84;20160;-79
2021/05/21 06:19:29;;;;;;;;;;;;;;;29.07;31.45;97146.76;1696939;85;20200;-81
2021/05/21 06:21:56;;;;;;;;;;;;;;;29.04;34.44;97145.06;1696971;85;20144;-78
2021/05/21 06:24:22;;;;;;;;;;;;;;;29.00;30.25;97142.02;1695781;85;20240;-77
2021/05/21 06:29:32;;;;;;;;;;;;;;;28.96;26.62;97143.03;1715719;84;20172;-78
2021/05/21 06:31:58;;;;;;;;;;;;;;;28.65;44.86;97157.81;1695561;84;20209;-78
2021/05/21 06:34:25;;;;;;;;;;;;;;;28.61;58.50;97153.41;1715144;83;20165;-75
2021/05/21 06:36:51;;;;;;;;;;;;;;;28.78;34.83;97142.66;1712132;83;20505;-77
2021/05/21 06:39:17;;;;;;;;;;;;;;;28.72;33.66;97151.75;1711741;83;20156;-75
2021/05/21 06:41:43;;;;;;;;;;;;;;;28.36;30.25;97148.23;1714265;83;20172;-77
2021/05/21 06:44:09;;;;;;;;;;;;;;;28.49;64.78;97147.97;1715577;84;20168;-75
2021/05/21 06:46:35;;;;;;;;;;;;;;;28.31;54.95;97149.45;1715446;84;20148;-76
2021/05/21 06:49:01;;;;;;;;;;;;;;;28.14;33.29;97142.59;1717017;82;20533;-77
2021/05/21 06:51:28;;;;;;;;;;;;;;;28.17;30.10;97139.39;1727415;82;20168;-78
2021/05/21 06:53:54;;;;;;;;;;;;;;;28.46;41.17;97150.34;1731980;82;20497;-78
2021/05/21 06:56:20;;;;;;;;;;;;;;;28.47;36.20;97143.86;1711695;83;20194;-78
2021/05/21 06:58:47;;;;;;;;;;;;;;;28.58;33.66;97146.28;1712802;83;20172;-79
2021/05/21 07:01:13;;;;;;;;;;;;;;;28.67;47.46;97148.38;1714960;83;20252;-79
2021/05/21 07:03:39;;;;;;;;;;;;;;;27.86;38.00;97145.42;1693067;85;20240;-78
2021/05/21 07:06:05;;;;;;;;;;;;;;;27.10;34.00;97143.98;1693322;83;20198;-79
2021/05/21 07:08:31;;;;;;;;;;;;;;;26.58;34.30;97143.02;1715386;83;20267;-77
2021/05/21 07:10:58;;;;;;;;;;;;;;;26.46;59.62;97153.75;1714814;84;20497;-78
2021/05/21 07:13:27;;;;;;;;;;;;;;;25.70;39.92;97147.53;1715576;84;20509;-77
2021/05/21 07:15:52;;;;;;;;;;;;;;;25.85;58.69;97148.56;1715468;84;20152;-79
2021/05/21 07:18:18;;;;;;;;;;;;;;;26.00;34.67;97138.25;1712386;83;20196;-78
2021/05/21 07:20:46;;;;;;;;;;;;;;;26.34;34.11;97143.37;1711683;83;20505;-78
2021/05/21 07:23:14;;;;;;;;;;;;;;;26.77;34.23;97140.34;1711568;83;20516;-78
2021/05/21 07:25:40;;;;;;;;;;;;;;;27.03;33.82;97139.70;1711918;83;20486;-79
2021/05/21 07:28:06;;;;;;;;;;;;;;;26.89;32.27;97140.40;1728817;83;20160;-78
2021/05/21 07:30:32;;;;;;;;;;;;;;;26.56;33.37;97145.11;1728743;82;20140;-79
2021/05/21 07:32:58;;;;;;;;;;;;;;;26.16;32.44;97151.75;1729993;82;20500;-78
2021/05/21 07:35:24;;;;;;;;;;;;;;;25.74;33.32;97152.81;1732491;83;20167;-81
2021/05/21 07:37:51;;;;;;;;;;;;;;;25.77;33.56;97155.05;1729482;83;20180;-83
2021/05/21 07:40:18;;;;;;;;;;;;;;;26.02;32.99;97156.95;1730670;82;20182;-79
2021/05/21 07:42:45;;;;;;;;;;;;;;;26.02;31.52;97156.95;1732052;82;20147;-79
2021/05/21 07:45:12;;;;;;;;;;;;;;;25.55;41.34;97161.34;1729035;83;20523;-79
2021/05/21 07:47:38;;;;;;;;;;;;;;;25.10;39.57;97168.94;1732018;80;20152;-78
2021/05/21 07:50:07;;;;;;;;;;;;;;;24.54;39.69;97156.86;1729876;82;20151;-78
2021/05/21 07:52:33;;;;;;;;;;;;;;;24.51;46.13;97170.23;1732017;83;20504;-78
2021/05/21 07:55:01;;;;;;;;;;;;;;;24.61;57.67;97165.75;1732272;83;20476;-78
2021/05/21 07:57:27;;;;;;;;;;;;;;;24.95;39.08;97161.12;1732438;83;20255;-79
2021/05/21 07:59:53;;;;;;;;;;;;;;;24.93;41.40;97166.70;1731684;83;20227;-77
2021/05/21 08:02:19;;;;;;;;;;;;;;;25.08;51.42;97172.36;1732221;83;20124;-80
2021/05/21 08:04:45;;;;;;;;;;;;;;;24.74;39.39;97168.45;1732263;83;20198;-78
2021/05/21 08:07:11;;;;;;;;;;;;;;;24.58;38.08;97164.84;1732560;83;20151;-77
2021/05/21 08:09:40;;;;;;;;;;;;;;;24.44;35.63;97158.66;1731967;83;20164;-79
2021/05/21 08:12:06;;;;;;;;;;;;;;;24.36;38.02;97161.05;1740891;81;20226;-79
2021/05/21 08:14:32;;;;;;;;;;;;;;;24.50;40.93;97163.19;1744390;80;20223;-79
2021/05/21 08:16:58;;;;;;;;;;;;;;;24.87;42.95;97157.32;1731882;83;20231;-78
2021/05/21 08:19:24;;;;;;;;;;;;;;;25.08;34.66;97157.00;1732401;83;20156;-76
2021/05/21 08:21:52;;;;;;;;;;;;;;;25.18;35.94;97149.81;1731284;83;20508;-78
2021/05/21 08:24:18;;;;;;;;;;;;;;;24.94;36.41;97159.46;1736894;81;20474;-79
2021/05/21 08:26:45;;;;;;;;;;;;;;;24.48;38.23;97155.83;1742412;81;20464;-78
2021/05/21 08:29:13;;;;;;;;;;;;;;;24.03;51.62;97166.45;1774562;81;20156;-78
2021/05/21 08:31:39;;;;;;;;;;;;;;;23.34;38.34;97166.56;1767952;81;20214;-80
2021/05/21 08:34:06;;;;;;;;;;;;;;;22.89;46.94;97168.34;1747748;81;20146;-79
2021/05/21 08:36:32;;;;;;;;;;;;;;;22.92;44.21;97167.42;1754083;81;20175;-78
2021/05/21 08:38:58;;;;;;;;;;;;;;;22.78;46.29;97167.06;1758805;81;20507;-76
2021/05/21 08:41:26;;;;;;;;;;;;;;;22.60;53.68;97174.30;1769233;81;20607;-79
2021/05/21 08:43:54;;;;;;;;;;;;;;;22.24;57.08;97176.13;1744620;81;20543;-76
2021/05/21 08:46:22;;;;;;;;;;;;;;;22.11;51.13;97176.02;1699114;84;20149;-79
2021/05/21 08:48:49;;;;;;;;;;;;;;;21.90;50.71;97179.56;1712117;84;20512;-79
2021/05/21 08:51:16;;;;;;;;;;;;;;;21.45;53.65;97183.26;1689772;84;20157;-80
2021/05/21 08:53:42;;;;;;;;;;;;;;;21.37;43.42;97180.17;1717483;81;20170;-77
2021/05/21 08:56:11;;;;;;;;;;;;;;;21.74;45.58;97178.83;1720050;81;20206;-78
2021/05/21 08:58:37;;;;;;;;;;;;;;;22.06;45.53;97173.91;1742260;81;20499;-78
2021/05/21 09:01:04;;;;;;;;;;;;;;;22.23;46.40;97169.59;1741946;82;20154;-79
2021/05/21 09:03:33;;;;;;;;;;;;;;;22.45;63.16;97174.44;1740182;82;20478;-80
2021/05/21 09:06:16;;;;;;;;;;;;;;;22.55;56.73;97178.91;1740191;81;20170;-78
2021/05/21 09:08:46;;;;;;;;;;;;;;;21.47;49.59;97181.22;1740234;80;20182;-77
2021/05/21 09:11:31;;;;;;;;;;;;;;;20.55;46.11;97179.38;1743632;80;20134;-78
2021/05/21 09:14:01;;;;;;;;;;;;;;;20.35;51.48;97179.08;1754151;81;20179;-78
2021/05/21 09:16:40;;;;;;;;;;;;;;;20.18;56.69;97185.12;1744273;81;20134;-78
2021/05/21 09:19:08;;;;;;;;;;;;;;;19.80;59.20;97184.57;1747132;82;20154;-81
2021/05/21 09:22:08;;;;;;;;;;;;;;;19.58;51.96;97180.08;1747239;82;20162;-80
2021/05/21 09:24:44;;;;;;;;;;;;;;;19.35;48.25;97175.03;1746947;82;20492;-78
2021/05/21 09:27:11;;;;;;;;;;;;;;;19.55;55.67;97177.75;1739859;82;20247;-79
2021/05/21 09:29:46;;;;;;;;;;;;;;;19.41;49.51;97181.51;1726425;82;20168;-79
2021/05/21 09:32:30;;;;;;;;;;;;;;;19.19;49.62;97177.81;1724441;81;20257;-78
2021/05/21 09:35:18;;;;;;;;;;;;;;;18.90;48.27;97187.27;1720317;83;20224;-79
2021/05/21 09:37:46;;;;;;;;;;;;;;;18.67;43.26;97183.20;1722706;83;20575;-78
2021/05/21 09:40:24;;;;;;;;;;;;;;;18.47;42.04;97178.25;1721597;83;20507;-79
2021/05/21 09:42:56;;;;;;;;;;;;;;;18.51;52.38;97180.92;1721165;83;20184;-78
2021/05/21 09:45:45;;;;;;;;;;;;;;;18.54;47.96;97178.41;1727752;82;20559;-78
2021/05/21 09:48:11;;;;;;;;;;;;;;;18.42;40.48;97172.09;1726740;83;20172;-78
2021/05/21 09:50:43;;;;;;;;;;;;;;;18.58;49.43;97183.23;1724814;83;20168;-78
2021/05/21 09:53:14;;;;;;;;;;;;;;;18.40;51.68;97182.61;1725301;83;20156;-78
2021/05/21 09:55:44;;;;;;;;;;;;;;;18.28;47.00;97182.14;1723884;83;20476;-77
2021/05/21 09:58:29;;;;;;;;;;;;;;;18.12;46.29;97178.19;1717864;82;20140;-79
2021/05/21 10:01:22;;;;;;;;;;;;;;;17.94;44.26;97176.51;1715326;83;20155;-81
2021/05/21 10:03:55;;;;;;;;;;;;;;;17.91;48.02;97180.32;1717168;83;20152;-78
2021/05/21 10:06:25;;;;;;;;;;;;;;;18.02;48.60;97172.53;1718437;82;20199;-77
2021/05/21 10:08:56;;;;;;;;;;;;;;;18.09;46.19;97172.69;1723978;81;20214;-77
2021/05/21 10:11:20;;;;;;;;;;;;;;;18.07;45.64;97166.17;1725641;81;20145;-79
2021/05/21 10:13:48;;;;;;;;;;;;;;;18.06;47.55;97161.02;1746325;81;20180;-82
2021/05/21 10:16:16;;;;;;;;;;;;;;;18.12;47.97;97176.84;1728021;83;20167;-84
2021/05/21 10:18:46;;;;;;;;;;;;;;;18.22;47.97;97170.83;1724100;83;20577;-78
2021/05/21 10:21:13;;;;;;;;;;;;;;;18.23;45.01;97168.50;1712963;81;20168;-79
2021/05/21 10:23:57;;;;;;;;;;;;;;;18.37;47.92;97168.30;1727590;83;20231;-81
2021/05/21 10:26:33;;;;;;;;;;;;;;;18.52;47.42;97167.06;1699532;83;20523;-78
2021/05/21 10:28:58;;;;;;;;;;;;;;;18.46;43.31;97167.76;1679645;84;20147;-79
2021/05/21 10:31:24;;;;;;;;;;;;;;;18.34;45.13;97160.63;1647132;84;20505;-78
2021/05/21 10:34:12;;;;;;;;;;;;;;;18.40;45.42;97163.94;1666228;86;20153;-80
2021/05/21 10:37:00;;;;;;;;;;;;;;;18.38;43.93;97157.93;1701604;83;20533;-78
2021/05/21 10:40:09;;;;;;;;;;;;;;;18.64;44.35;97151.01;1723672;83;20184;-78
2021/05/21 10:42:54;;;;;;;;;;;;;;;18.92;47.30;97146.55;1722395;83;20536;-78
2021/05/21 10:45:32;;;;;;;;;;;;;;;18.94;43.89;97147.72;1723812;82;20567;-79
2021/05/21 10:48:00;;;;;;;;;;;;;;;19.02;41.70;97146.38;1740472;81;20478;-79
2021/05/21 10:50:37;;;;;;;;;;;;;;;18.96;42.54;97149.23;1732647;82;20148;-79
2021/05/21 10:53:05;;;;;;;;;;;;;;;18.96;41.73;97145.72;1727908;83;20220;-78
2021/05/21 10:55:50;;;;;;;;;;;;;;;18.86;40.63;97148.59;1724964;83;20196;-78
2021/05/21 10:58:30;;;;;;;;;;;;;;;18.58;39.63;97147.70;1746074;80;20204;-77
2021/05/21 11:01:15;;;;;;;;;;;;;;;18.43;41.52;97132.91;1721538;83;20231;-78
2021/05/21 11:04:06;;;;;;;;;;;;;;;18.42;40.15;97132.58;1722937;82;20223;-78
2021/05/21 11:06:53;;;;;;;;;;;;;;;18.44;40.04;97127.06;1750345;82;20159;-75
2021/05/21 11:09:23;;;;;;;;;;;;;;;18.49;40.50;97127.39;1745818;82;20537;-78
2021/05/21 11:11:55;;;;;;;;;;;;;;;18.58;40.49;97123.69;1728132;83;20147;-78
2021/05/21 11:14:37;;;;;;;;;;;;;;;18.58;40.45;97121.84;1733140;82;20474;-80
2021/05/21 11:17:15;;;;;;;;;;;;;;;18.44;40.29;97137.25;1765943;80;20517;-80
2021/05/21 11:19:56;;;;;;;;;;;;;;;18.22;40.79;97134.82;1726755;81;20533;-78
2021/05/21 11:22:38;;;;;;;;;;;;;;;18.15;40.69;97130.66;1720170;83;20169;-79
2021/05/21 11:25:07;;;;;;;;;;;;;;;18.25;40.74;97135.79;1727479;83;20171;-83
2021/05/21 11:27:36;;;;;;;;;;;;;;;18.33;39.42;97125.61;1729215;82;20155;-81
2021/05/21 11:30:06;;;;;;;;;;;;;;;18.36;38.96;97127.94;1728683;83;20227;-80
2021/05/21 11:32:32;;;;;;;;;;;;;;;18.32;39.43;97128.80;1731561;83;20215;-80
2021/05/21 11:34:59;;;;;;;;;;;;;;;18.38;40.23;97116.57;1732171;83;20178;-82
2021/05/21 11:37:26;;;;;;;;;;;;;;;18.40;40.07;97122.09;1729215;83;20156;-82
2021/05/21 11:39:53;;;;;;;;;;;;;;;18.44;40.66;97125.24;1728942;82;20203;-79
2021/05/21 11:42:21;;;;;;;;;;;;;;;18.52;41.60;97127.87;1743026;80;20149;-80
2021/05/21 11:44:53;;;;;;;;;;;;;;;18.53;40.71;97120.20;1735616;81;20171;-79
2021/05/21 11:47:25;;;;;;;;;;;;;;;18.56;41.61;97123.02;1731807;83;20215;-77
2021/05/21 11:49:54;;;;;;;;;;;;;;;18.67;41.90;97123.98;1722202;81;20199;-79
2021/05/21 11:52:22;;;;;;;;;;;;;;;18.96;43.07;97128.36;1726274;80;20227;-78
2021/05/21 11:54:51;;;;;;;;;;;;;;;19.30;40.50;97117.81;1729954;81;20152;-77
2021/05/21 11:57:24;;;;;;;;;;;;;;;19.38;38.87;97121.75;1726508;83;20207;-79
2021/05/21 11:59:47;;;;;;;;;;;;;;;19.29;38.75;97125.50;1725606;81;20184;-79
2021/05/21 12:02:15;;;;;;;;;;;;;;;19.44;41.25;97126.89;1728661;82;20168;-79
2021/05/21 12:04:42;;;;;;;;;;;;;;;19.45;39.25;97122.70;1731099;81;20211;-82
2021/05/21 12:07:25;;;;;;;;;;;;;;;19.54;37.40;97119.44;1740512;80;20147;-77
2021/05/21 12:09:54;;;;;;;;;;;;;;;19.64;40.82;97121.36;1772599;80;20220;-78
2021/05/21 12:12:22;;;;;;;;;;;;;;;19.84;39.26;97120.03;1744880;80;20168;-79
2021/05/21 12:14:48;;;;;;;;;;;;;;;20.05;37.53;97118.83;1728366;83;20188;-83
2021/05/21 12:17:14;;;;;;;;;;;;;;;20.01;38.60;97110.87;1732153;81;20160;-78
2021/05/21 12:19:41;;;;;;;;;;;;;;;20.20;36.53;97116.17;1690600;84;20495;-81
2021/05/21 12:22:07;;;;;;;;;;;;;;;20.27;37.74;97104.23;1684926;85;20515;-77
2021/05/21 12:24:37;;;;;;;;;;;;;;;20.36;37.65;97103.64;1728222;83;20184;-77
2021/05/21 12:27:04;;;;;;;;;;;;;;;20.38;38.19;97105.59;1734291;80;20160;-78
2021/05/21 12:29:31;;;;;;;;;;;;;;;20.43;38.29;97094.66;1738461;81;20196;-81
2021/05/21 12:31:58;;;;;;;;;;;;;;;20.46;35.11;97092.64;1728583;82;20160;-77
2021/05/21 12:34:26;;;;;;;;;;;;;;;20.48;37.42;97102.13;1731126;82;20156;-80
2021/05/21 12:37:03;;;;;;;;;;;;;;;20.46;36.61;97093.48;1729981;80;20171;-82
2021/05/21 12:39:34;;;;;;;;;;;;;;;20.39;37.43;97096.06;1738887;80;20168;-79
2021/05/21 12:42:01;;;;;;;;;;;;;;;20.38;35.52;97096.23;1760282;80;20199;-79
2021/05/21 12:44:29;;;;;;;;;;;;;;;20.26;35.39;97097.21;1729453;82;20176;-78
2021/05/21 12:47:02;;;;;;;;;;;;;;;20.15;36.00;97098.52;1739118;81;20559;-83
2021/05/21 12:49:32;;;;;;;;;;;;;;;20.08;37.23;97095.73;1739014;80;20172;-79
2021/05/21 12:52:01;;;;;;;;;;;;;;;20.07;38.15;97097.27;1746629;80;20243;-80
2021/05/21 12:54:35;;;;;;;;;;;;;;;19.78;35.83;97082.30;1782189;80;20508;-77
2021/05/21 12:57:10;;;;;;;;;;;;;;;19.65;35.79;97096.80;1732383;83;20500;-76